createdAt,value
2018-07-24T00:02:15.223Z,92.30
2018-07-24T00:04:47.245Z,92.90
2018-07-24T00:07:18.023Z,92.80
2018-07-24T00:09:48.868Z,93.00
2018-07-24T00:12:19.474Z,92.60
2018-07-24T00:14:50.146Z,92.70
2018-07-24T00:17:20.366Z,93.20
2018-07-24T00:19:51.159Z,93.50
2018-07-24T00:22:21.457Z,93.30
2018-07-24T00:24:51.891Z,93.20
2018-07-24T00:27:22.707Z,93.40
2018-07-24T00:29:53.871Z,93.50
2018-07-24T00:32:24.102Z,94.00
2018-07-24T00:34:54.620Z,94.00
2018-07-24T00:37:25.474Z,93.90
2018-07-24T00:39:56.556Z,94.30
2018-07-24T00:42:27.064Z,94.20
2018-07-24T00:44:58.092Z,94.10
2018-07-24T00:47:32.638Z,94.30
2018-07-24T00:50:03.485Z,93.70
2018-07-24T00:52:33.933Z,93.30
2018-07-24T00:55:04.675Z,93.50
2018-07-24T00:57:35.192Z,94.00
2018-07-24T01:00:05.875Z,94.10
2018-07-24T01:02:36.353Z,94.00
2018-07-24T01:05:07.061Z,93.70
2018-07-24T01:07:39.123Z,93.90
2018-07-24T01:10:10.762Z,93.80
2018-07-24T01:12:41.447Z,94.00
2018-07-24T01:15:11.816Z,94.30
2018-07-24T01:17:42.574Z,94.30
2018-07-24T01:20:12.987Z,94.50
2018-07-24T01:22:43.661Z,94.70
2018-07-24T01:25:14.083Z,94.90
2018-07-24T01:27:44.722Z,95.00
2018-07-24T01:30:15.201Z,95.20
2018-07-24T01:32:45.965Z,95.00
2018-07-24T01:35:16.135Z,95.30
2018-07-24T01:37:47.082Z,95.70
2018-07-24T01:40:17.293Z,95.60
2018-07-24T01:42:48.018Z,95.70
2018-07-24T01:45:18.362Z,95.80
2018-07-24T01:47:49.506Z,95.00
2018-07-24T01:50:20.114Z,94.50
2018-07-24T01:52:50.810Z,94.40
2018-07-24T01:55:21.892Z,94.00
2018-07-24T01:57:53.599Z,94.20
2018-07-24T02:00:23.817Z,94.40
2018-07-24T02:02:55.501Z,94.60
2018-07-24T02:05:25.763Z,95.50
2018-07-24T02:07:59.870Z,95.80
2018-07-24T02:10:30.469Z,95.90
2018-07-24T02:13:00.947Z,95.50
2018-07-24T02:15:30.939Z,95.50
2018-07-24T02:18:01.298Z,95.50
2018-07-24T02:20:31.640Z,95.70
2018-07-24T02:23:02.065Z,96.30
2018-07-24T02:25:32.924Z,95.60
2018-07-24T02:28:03.156Z,95.30
2018-07-24T02:30:33.967Z,95.00
2018-07-24T02:33:03.892Z,95.30
2018-07-24T02:35:35.165Z,95.90
2018-07-24T02:38:05.935Z,96.10
2018-07-24T02:40:36.257Z,96.20
2018-07-24T02:43:11.414Z,96.30
2018-07-24T02:45:42.283Z,96.40
2018-07-24T02:48:12.564Z,95.60
2018-07-24T02:50:42.715Z,95.70
2018-07-24T02:53:13.047Z,95.60
2018-07-24T02:55:43.422Z,96.10
2018-07-24T02:58:14.179Z,96.80
2018-07-24T03:00:44.568Z,96.40
2018-07-24T03:03:14.766Z,95.90
2018-07-24T03:05:45.080Z,96.30
2018-07-24T03:08:15.472Z,96.00
2018-07-24T03:10:46.120Z,96.00
2018-07-24T03:13:16.647Z,95.90
2018-07-24T03:15:49.310Z,96.00
2018-07-24T03:18:19.667Z,95.90
2018-07-24T03:20:50.529Z,95.60
2018-07-24T03:23:20.817Z,95.80
2018-07-24T03:25:51.598Z,95.70
2018-07-24T03:28:21.480Z,95.60
2018-07-24T03:30:53.194Z,95.40
2018-07-24T03:33:23.350Z,95.60
2018-07-24T03:35:54.084Z,95.50
2018-07-24T03:38:24.819Z,95.70
2018-07-24T03:40:55.187Z,95.90
2018-07-24T03:43:25.207Z,96.20
2018-07-24T03:45:55.409Z,96.50
2018-07-24T03:48:25.908Z,96.10
2018-07-24T03:50:56.088Z,96.20
2018-07-24T03:53:26.303Z,96.70
2018-07-24T03:55:56.738Z,97.10
2018-07-24T03:58:27.372Z,97.30
2018-07-24T04:00:57.515Z,97.40
2018-07-24T04:03:28.070Z,97.50
2018-07-24T04:05:58.724Z,97.10
2018-07-24T04:08:29.519Z,97.10
2018-07-24T04:13:30.699Z,96.30
2018-07-24T04:16:01.631Z,96.20
2018-07-24T04:18:38.970Z,95.70
2018-07-24T04:21:09.188Z,95.70
2018-07-24T04:23:39.547Z,95.70
2018-07-24T04:26:09.845Z,95.60
2018-07-24T04:28:41.593Z,95.50
2018-07-24T04:31:13.037Z,95.40
2018-07-24T04:33:44.394Z,95.40
2018-07-24T04:36:14.732Z,95.70
2018-07-24T04:38:45.349Z,95.60
2018-07-24T04:41:15.657Z,95.40
2018-07-24T04:43:45.598Z,95.40
2018-07-24T04:46:15.702Z,95.50
2018-07-24T04:48:46.645Z,95.60
2018-07-24T04:51:17.221Z,95.30
2018-07-24T04:53:48.073Z,95.10
2018-07-24T04:56:18.826Z,95.10
2018-07-24T04:58:49.361Z,95.00
2018-07-24T05:01:19.689Z,94.80
2018-07-24T05:03:50.416Z,94.50
2018-07-24T05:06:20.752Z,94.50
2018-07-24T05:08:51.062Z,93.90
2018-07-24T05:11:21.776Z,93.60
2018-07-24T05:13:52.207Z,93.60
2018-07-24T05:16:22.327Z,93.40
2018-07-24T05:18:52.689Z,93.10
2018-07-24T05:21:22.959Z,92.80
2018-07-24T05:23:53.317Z,92.70
2018-07-24T05:26:23.820Z,92.30
2018-07-24T05:28:55.343Z,92.00
2018-07-24T05:31:25.293Z,91.70
2018-07-24T05:33:55.460Z,91.50
2018-07-24T05:36:26.230Z,90.90
2018-07-24T05:38:56.606Z,90.60
2018-07-24T05:41:27.045Z,90.30
2018-07-24T05:43:57.404Z,90.00
2018-07-24T05:46:32.071Z,89.70
2018-07-24T05:49:02.820Z,89.30
2018-07-24T05:51:33.126Z,89.10
2018-07-24T05:54:03.406Z,88.30
2018-07-24T05:56:33.528Z,88.00
2018-07-24T05:59:03.936Z,87.50
2018-07-24T06:01:34.696Z,86.80
2018-07-24T06:04:04.812Z,86.60
2018-07-24T06:06:34.965Z,86.30
2018-07-24T06:09:06.811Z,85.40
2018-07-24T06:11:37.295Z,84.80
2018-07-24T06:14:07.842Z,84.20
2018-07-24T06:16:38.533Z,83.10
2018-07-24T06:19:09.215Z,82.90
2018-07-24T06:21:39.374Z,82.40
2018-07-24T06:24:10.047Z,81.90
2018-07-24T06:26:40.502Z,81.20
2018-07-24T06:29:10.657Z,80.70
2018-07-24T06:31:40.462Z,80.30
2018-07-24T06:34:10.765Z,80.10
2018-07-24T06:36:41.276Z,80.40
2018-07-24T06:39:13.461Z,80.00
2018-07-24T06:41:44.204Z,79.90
2018-07-24T06:44:14.666Z,79.90
2018-07-24T06:46:45.259Z,79.50
2018-07-24T06:49:16.240Z,78.80
2018-07-24T06:51:46.788Z,78.80
2018-07-24T06:54:17.307Z,78.80
2018-07-24T06:56:47.412Z,78.50
2018-07-24T06:59:18.164Z,78.60
2018-07-24T07:01:48.364Z,78.20
2018-07-24T07:04:19.605Z,78.10
2018-07-24T07:06:50.123Z,77.50
2018-07-24T07:09:20.903Z,77.20
2018-07-24T07:11:50.952Z,76.80
2018-07-24T07:14:21.605Z,76.80
2018-07-24T07:16:51.575Z,76.60
2018-07-24T07:19:22.657Z,76.50
2018-07-24T07:21:53.924Z,76.10
2018-07-24T07:24:24.118Z,76.10
2018-07-24T07:26:55.284Z,75.70
2018-07-24T07:29:25.387Z,75.60
2018-07-24T07:31:55.308Z,75.50
2018-07-24T07:34:26.289Z,75.10
2018-07-24T07:36:56.947Z,74.80
2018-07-24T07:39:27.518Z,74.40
2018-07-24T07:41:57.845Z,74.50
2018-07-24T07:44:28.289Z,74.30
2018-07-24T07:46:58.377Z,74.00
2018-07-24T07:49:28.724Z,73.80
2018-07-24T07:51:59.056Z,73.80
2018-07-24T07:54:29.525Z,73.10
2018-07-24T07:56:59.362Z,73.10
2018-07-24T07:59:29.439Z,72.60
2018-07-24T08:01:59.702Z,71.80
2018-07-24T08:04:29.521Z,71.80
2018-07-24T08:06:59.715Z,71.80
2018-07-24T08:09:29.701Z,69.30
2018-07-24T08:12:00.324Z,68.30
2018-07-24T08:14:29.992Z,68.40
2018-07-24T08:17:00.219Z,69.90
2018-07-24T08:19:29.759Z,69.70
2018-07-24T08:21:59.663Z,68.70
2018-07-24T08:24:29.956Z,69.30
2018-07-24T08:26:59.720Z,68.10
2018-07-24T08:29:38.181Z,67.90
2018-07-24T08:32:08.003Z,67.10
2018-07-24T08:34:41.770Z,66.30
2018-07-24T08:37:11.925Z,64.50
2018-07-24T08:39:41.865Z,64.90
2018-07-24T08:42:32.036Z,64.20
2018-07-24T08:45:01.992Z,63.90
2018-07-24T08:47:32.196Z,63.80
2018-07-24T08:50:02.381Z,63.90
2018-07-24T08:52:32.341Z,63.10
2018-07-24T08:55:01.978Z,62.90
2018-07-24T08:57:31.606Z,63.20
2018-07-24T09:00:01.384Z,63.30
2018-07-24T09:02:32.406Z,62.60
2018-07-24T09:05:02.607Z,62.30
2018-07-24T09:07:32.540Z,61.80
2018-07-24T09:10:02.760Z,62.00
2018-07-24T09:12:32.607Z,62.30
2018-07-24T09:15:02.085Z,62.40
2018-07-24T09:17:32.822Z,62.00
2018-07-24T09:20:03.818Z,61.60
2018-07-24T09:22:33.577Z,60.50
2018-07-24T09:25:03.500Z,59.20
2018-07-24T09:27:34.072Z,57.70
2018-07-24T09:30:04.150Z,56.90
2018-07-24T09:32:35.438Z,55.70
2018-07-24T09:35:05.628Z,55.20
2018-07-24T09:37:35.770Z,55.10
2018-07-24T09:40:06.104Z,54.30
2018-07-24T09:42:35.386Z,53.80
2018-07-24T09:45:05.655Z,53.80
2018-07-24T09:47:35.061Z,53.90
2018-07-24T09:50:06.721Z,53.60
2018-07-24T09:52:36.355Z,53.00
2018-07-24T09:55:05.692Z,52.50
2018-07-24T10:00:09.566Z,51.90
2018-07-24T10:02:39.446Z,52.20
2018-07-24T10:05:09.340Z,52.80
2018-07-24T10:07:40.025Z,52.10
2018-07-24T10:10:10.472Z,52.10
2018-07-24T10:12:40.688Z,52.70
2018-07-24T10:15:11.355Z,53.30
2018-07-24T10:17:41.569Z,53.30
2018-07-24T10:20:11.184Z,53.20
2018-07-24T10:25:11.805Z,52.10
2018-07-24T10:27:41.401Z,50.90
2018-07-24T10:30:10.749Z,50.50
2018-07-24T10:32:40.361Z,50.90
2018-07-24T10:35:10.625Z,49.60
2018-07-24T10:37:41.043Z,49.20
2018-07-24T10:40:12.483Z,49.50
2018-07-24T10:42:42.098Z,49.30
2018-07-24T10:45:12.970Z,50.20
2018-07-24T10:47:48.290Z,50.40
2018-07-24T10:50:18.603Z,50.20
2018-07-24T10:52:48.893Z,49.70
2018-07-24T10:55:19.367Z,49.50
2018-07-24T10:57:49.746Z,50.20
2018-07-24T11:00:20.351Z,50.30
2018-07-24T11:02:50.946Z,50.30
2018-07-24T11:05:20.972Z,50.90
2018-07-24T11:07:51.168Z,51.00
2018-07-24T11:10:21.404Z,50.30
2018-07-24T11:12:51.422Z,50.10
2018-07-24T11:15:21.746Z,50.70
2018-07-24T11:17:51.915Z,50.80
2018-07-24T11:20:21.960Z,50.40
2018-07-24T11:22:51.792Z,50.10
2018-07-24T11:25:21.720Z,49.60
2018-07-24T11:27:51.611Z,48.70
2018-07-24T11:30:21.302Z,48.50
2018-07-24T11:32:50.594Z,48.20
2018-07-24T11:35:20.534Z,47.20
2018-07-24T11:37:50.042Z,47.40
2018-07-24T11:40:21.357Z,47.70
2018-07-24T11:42:52.413Z,47.10
2018-07-24T11:45:22.967Z,47.70
2018-07-24T11:47:52.966Z,47.20
2018-07-24T11:50:23.184Z,46.90
2018-07-24T11:52:53.009Z,46.40
2018-07-24T11:55:23.317Z,46.30
2018-07-24T11:57:53.482Z,46.70
2018-07-24T12:00:23.801Z,47.00
2018-07-24T12:05:27.285Z,47.20
2018-07-24T12:07:56.954Z,46.60
2018-07-24T12:10:28.724Z,45.70
2018-07-24T12:12:58.555Z,45.50
2018-07-24T12:15:28.968Z,45.10
2018-07-24T12:17:59.858Z,45.80
2018-07-24T12:20:30.948Z,45.70
2018-07-24T12:23:01.078Z,46.00
2018-07-24T12:25:30.792Z,47.40
2018-07-24T12:28:00.813Z,45.90
2018-07-24T12:30:31.233Z,45.20
2018-07-24T12:33:01.325Z,44.40
2018-07-24T12:35:30.979Z,43.80
2018-07-24T12:38:00.772Z,43.70
2018-07-24T12:40:30.433Z,44.10
2018-07-24T12:43:00.466Z,43.70
2018-07-24T12:45:30.041Z,43.20
2018-07-24T12:47:59.934Z,43.40
2018-07-24T12:50:30.784Z,43.40
2018-07-24T12:53:01.117Z,43.70
2018-07-24T12:55:30.998Z,43.50
2018-07-24T12:58:02.049Z,43.40
2018-07-24T13:00:32.277Z,43.70
2018-07-24T13:03:02.379Z,43.90
2018-07-24T13:05:33.690Z,43.60
2018-07-24T13:08:03.485Z,44.10
2018-07-24T13:10:33.158Z,44.30
2018-07-24T13:13:05.220Z,43.70
2018-07-24T13:15:35.086Z,42.90
2018-07-24T13:18:05.168Z,42.80
2018-07-24T13:20:35.256Z,43.40
2018-07-24T13:23:05.659Z,43.70
2018-07-24T13:25:39.519Z,43.70
2018-07-24T13:28:09.038Z,43.50
2018-07-24T13:30:38.633Z,43.00
2018-07-24T13:33:09.026Z,42.60
2018-07-24T13:35:38.419Z,42.60
2018-07-24T13:38:07.929Z,42.10
2018-07-24T13:40:37.943Z,42.10
2018-07-24T13:43:07.727Z,42.50
2018-07-24T13:45:37.620Z,43.00
2018-07-24T13:48:09.681Z,43.60
2018-07-24T13:50:39.508Z,43.40
2018-07-24T13:53:09.679Z,43.40
2018-07-24T13:55:39.690Z,43.90
2018-07-24T13:58:09.621Z,43.80
2018-07-24T14:00:39.022Z,43.20
2018-07-24T14:03:08.662Z,41.70
2018-07-24T14:05:38.291Z,41.70
2018-07-24T14:08:08.220Z,41.20
2018-07-24T14:10:37.718Z,41.60
2018-07-24T14:13:07.127Z,41.20
2018-07-24T14:15:36.936Z,41.00
2018-07-24T14:18:06.244Z,41.00
2018-07-24T14:20:41.606Z,41.10
2018-07-24T14:23:11.463Z,41.10
2018-07-24T14:25:41.012Z,40.80
2018-07-24T14:28:10.195Z,41.20
2018-07-24T14:30:42.976Z,40.90
2018-07-24T14:33:12.459Z,40.50
2018-07-24T14:35:42.948Z,41.00
2018-07-24T14:38:13.192Z,40.50
2018-07-24T14:40:43.797Z,41.00
2018-07-24T14:43:13.649Z,41.30
2018-07-24T14:45:43.588Z,41.60
2018-07-24T14:48:13.343Z,41.60
2018-07-24T14:50:42.741Z,41.40
2018-07-24T14:53:12.491Z,41.40
2018-07-24T14:55:42.517Z,40.90
2018-07-24T14:58:12.056Z,40.80
2018-07-24T15:00:42.324Z,40.90
2018-07-24T15:03:11.860Z,40.90
2018-07-24T15:05:47.103Z,41.00
2018-07-24T15:08:17.363Z,41.00
2018-07-24T15:10:46.834Z,41.20
2018-07-24T15:13:23.102Z,41.60
2018-07-24T15:15:53.664Z,41.80
2018-07-24T15:18:24.782Z,42.40
2018-07-24T15:20:54.877Z,42.60
2018-07-24T15:23:25.019Z,42.10
2018-07-24T15:25:55.046Z,42.50
2018-07-24T15:28:25.849Z,42.80
2018-07-24T15:30:55.983Z,42.50
2018-07-24T15:33:25.839Z,42.60
2018-07-24T15:35:55.673Z,42.50
2018-07-24T15:38:25.986Z,42.20
2018-07-24T15:40:56.004Z,41.80
2018-07-24T15:43:25.640Z,42.20
2018-07-24T15:45:55.683Z,42.00
2018-07-24T15:48:24.807Z,42.40
2018-07-24T15:50:54.569Z,42.60
2018-07-24T15:53:24.140Z,42.50
2018-07-24T15:55:53.657Z,42.00
2018-07-24T15:58:22.949Z,42.20
2018-07-24T16:00:52.043Z,42.20
2018-07-24T16:03:23.216Z,41.70
2018-07-24T16:05:52.786Z,41.70
2018-07-24T16:08:22.129Z,41.20
2018-07-24T16:10:51.382Z,41.30
2018-07-24T16:13:20.908Z,41.30
2018-07-24T16:15:50.419Z,41.40
2018-07-24T16:18:19.637Z,41.60
2018-07-24T16:20:49.188Z,41.90
2018-07-24T16:23:18.700Z,42.00
2018-07-24T16:25:48.029Z,41.90
2018-07-24T16:28:17.631Z,42.00
2018-07-24T16:30:47.193Z,42.00
2018-07-24T16:33:16.850Z,42.20
2018-07-24T16:35:46.676Z,42.20
2018-07-24T16:38:15.986Z,41.80
2018-07-24T16:40:48.431Z,41.70
2018-07-24T16:43:17.699Z,41.90
2018-07-24T16:45:47.243Z,42.00
2018-07-24T16:48:16.822Z,41.80
2018-07-24T16:50:46.236Z,41.70
2018-07-24T16:53:15.336Z,41.60
2018-07-24T16:55:44.759Z,41.70
2018-07-24T16:58:14.545Z,41.90
2018-07-24T17:00:43.575Z,41.90
2018-07-24T17:03:13.211Z,41.90
2018-07-24T17:05:44.095Z,42.40
2018-07-24T17:08:13.926Z,42.20
2018-07-24T17:10:43.115Z,42.50
2018-07-24T17:13:12.533Z,42.50
2018-07-24T17:15:42.201Z,42.70
2018-07-24T17:18:11.639Z,42.50
2018-07-24T17:20:41.608Z,42.80
2018-07-24T17:23:16.676Z,42.90
2018-07-24T17:25:46.030Z,42.90
2018-07-24T17:28:15.642Z,42.70
2018-07-24T17:30:45.208Z,42.20
2018-07-24T17:33:15.424Z,42.70
2018-07-24T17:35:44.656Z,42.80
2018-07-24T17:38:15.434Z,43.00
2018-07-24T17:40:45.098Z,43.30
2018-07-24T17:43:14.704Z,43.20
2018-07-24T17:45:44.595Z,43.00
2018-07-24T17:48:14.278Z,43.50
2018-07-24T17:50:44.349Z,43.90
2018-07-24T17:53:14.435Z,44.60
2018-07-24T17:56:03.863Z,45.30
2018-07-24T17:58:34.094Z,46.60
2018-07-24T18:01:04.430Z,47.00
2018-07-24T18:03:34.685Z,47.70
2018-07-24T18:06:05.140Z,48.50
2018-07-24T18:08:35.641Z,48.60
2018-07-24T18:11:07.243Z,49.10
2018-07-24T18:13:37.573Z,50.00
2018-07-24T18:16:07.894Z,50.10
2018-07-24T18:18:38.663Z,50.80
2018-07-24T18:21:09.465Z,51.00
2018-07-24T18:23:39.294Z,51.20
2018-07-24T18:26:09.091Z,51.60
2018-07-24T18:28:38.645Z,51.60
2018-07-24T18:31:08.684Z,52.10
2018-07-24T18:33:38.948Z,52.20
2018-07-24T18:36:09.502Z,52.80
2018-07-24T18:38:39.246Z,53.20
2018-07-24T18:41:09.375Z,53.60
2018-07-24T18:43:39.179Z,53.30
2018-07-24T18:46:13.105Z,53.80
2018-07-24T18:48:42.715Z,54.40
2018-07-24T18:51:12.939Z,55.80
2018-07-24T18:53:43.262Z,56.10
2018-07-24T18:56:13.363Z,56.10
2018-07-24T18:58:43.456Z,56.80
2018-07-24T19:01:13.358Z,57.20
2018-07-24T19:03:51.876Z,57.10
2018-07-24T19:06:22.230Z,57.20
2018-07-24T19:08:52.218Z,57.40
2018-07-24T19:11:22.250Z,57.70
2018-07-24T19:13:52.640Z,58.50
2018-07-24T19:16:23.219Z,59.50
2018-07-24T19:18:53.730Z,59.90
2018-07-24T19:21:24.785Z,59.30
2018-07-24T19:23:55.031Z,60.30
2018-07-24T19:26:25.237Z,60.50
2018-07-24T19:28:55.563Z,61.60
2018-07-24T19:31:25.824Z,62.40
2018-07-24T19:33:56.177Z,61.90
2018-07-24T19:36:25.812Z,62.70
2018-07-24T19:38:56.145Z,63.40
2018-07-24T19:41:26.046Z,64.00
2018-07-24T19:43:55.958Z,64.10
2018-07-24T19:46:25.894Z,64.90
2018-07-24T19:48:56.504Z,65.50
2018-07-24T19:51:26.969Z,65.90
2018-07-24T19:53:57.271Z,66.10
2018-07-24T19:56:27.586Z,67.00
2018-07-24T19:58:58.564Z,67.50
2018-07-24T20:01:29.270Z,67.50
2018-07-24T20:03:59.721Z,67.80
2018-07-24T20:06:30.363Z,68.30
2018-07-24T20:09:00.528Z,68.40
2018-07-24T20:11:30.681Z,68.90
2018-07-24T20:14:00.654Z,69.20
2018-07-24T20:16:31.912Z,69.40
2018-07-24T20:19:02.525Z,70.00
2018-07-24T20:21:33.176Z,70.60
2018-07-24T20:24:03.779Z,71.00
2018-07-24T20:26:34.021Z,71.50
2018-07-24T20:29:04.737Z,71.70
2018-07-24T20:31:35.812Z,72.10
2018-07-24T20:34:06.277Z,72.80
2018-07-24T20:36:36.820Z,73.30
2018-07-24T20:39:10.439Z,74.10
2018-07-24T20:41:42.043Z,74.20
2018-07-24T20:44:12.582Z,74.40
2018-07-24T20:46:43.442Z,74.60
2018-07-24T20:49:14.287Z,74.60
2018-07-24T20:51:44.865Z,74.50
2018-07-24T20:54:14.959Z,75.10
2018-07-24T20:56:45.188Z,74.80
2018-07-24T21:04:15.828Z,75.10
2018-07-24T21:06:46.722Z,75.30
2018-07-24T21:09:16.862Z,76.20
2018-07-24T21:11:47.905Z,75.60
2018-07-24T21:14:18.375Z,76.20
2018-07-24T21:16:48.997Z,76.50
2018-07-24T21:19:19.305Z,76.80
2018-07-24T21:21:49.729Z,76.80
2018-07-24T21:24:20.187Z,76.30
2018-07-24T21:26:50.604Z,73.40
2018-07-24T21:29:21.548Z,72.30
2018-07-24T21:31:52.890Z,71.30
2018-07-24T21:34:23.120Z,70.90
2018-07-24T21:36:53.195Z,70.70
2018-07-24T21:39:23.896Z,70.60
2018-07-24T21:41:55.212Z,70.90
2018-07-24T21:44:26.495Z,70.90
2018-07-24T21:46:56.983Z,71.10
2018-07-24T21:49:27.170Z,71.60
2018-07-24T21:51:57.267Z,72.00
2018-07-24T21:54:28.162Z,73.00
2018-07-24T21:56:58.554Z,73.40
2018-07-24T21:59:29.888Z,73.90
2018-07-24T22:02:00.607Z,74.40
2018-07-24T22:07:02.073Z,75.00
2018-07-24T22:12:04.503Z,75.40
2018-07-24T22:14:36.569Z,75.40
2018-07-24T22:17:07.168Z,75.50
2018-07-24T22:19:37.707Z,75.70
2018-07-24T22:22:08.585Z,75.70
2018-07-24T22:24:38.952Z,75.90
2018-07-24T22:27:09.331Z,76.00
2018-07-24T22:29:39.579Z,76.00
2018-07-24T22:32:09.397Z,76.20
2018-07-24T22:34:40.004Z,76.40
2018-07-24T22:37:10.009Z,76.30
2018-07-24T22:39:40.729Z,76.40
2018-07-24T22:42:10.968Z,76.60
2018-07-24T22:44:40.933Z,76.70
2018-07-24T22:47:11.490Z,77.00
2018-07-24T22:49:43.942Z,77.10
2018-07-24T22:52:14.830Z,77.10
2018-07-24T22:54:45.005Z,77.20
2018-07-24T22:57:15.809Z,77.10
2018-07-24T22:59:46.639Z,77.40
2018-07-24T23:02:16.723Z,77.50
2018-07-24T23:07:17.140Z,77.80
2018-07-24T23:09:47.643Z,78.10
2018-07-24T23:12:17.596Z,78.40
2018-07-24T23:14:47.292Z,78.80
2018-07-24T23:17:18.017Z,79.20
2018-07-24T23:19:48.572Z,79.50
2018-07-24T23:22:18.692Z,79.60
2018-07-24T23:24:49.133Z,79.70
2018-07-24T23:27:19.307Z,79.70
2018-07-24T23:29:49.586Z,80.40
2018-07-24T23:32:19.932Z,80.60
2018-07-24T23:34:49.861Z,80.60
2018-07-24T23:37:19.682Z,81.00
2018-07-24T23:39:50.941Z,81.10
2018-07-24T23:42:21.289Z,81.30
2018-07-24T23:44:51.225Z,81.60
2018-07-24T23:47:21.192Z,81.80
2018-07-24T23:49:51.338Z,82.00
2018-07-24T23:52:21.378Z,82.20
2018-07-24T23:54:51.482Z,82.20
2018-07-24T23:57:21.939Z,81.90
2018-07-24T23:59:52.426Z,82.40
